sensor_id;sensor_type;location;lat;lon;timestamp;P1;durP1;ratioP1;P2;durP2;ratioP2
18931;SDS011;9598;50.954;3.112;2023-06-14T00:00:21;7.72;;;6.93;;
18931;SDS011;9598;50.954;3.112;2023-06-14T00:05:23;8.23;;;7.07;;
18931;SDS011;9598;50.954;3.112;2023-06-14T00:10:26;7.88;;;6.68;;
18931;SDS011;9598;50.954;3.112;2023-06-14T00:15:32;7.50;;;6.78;;
18931;SDS011;9598;50.954;3.112;2023-06-14T00:20:34;7.63;;;6.72;;
18931;SDS011;9598;50.954;3.112;2023-06-14T00:25:37;11.05;;;7.95;;
18931;SDS011;9598;50.954;3.112;2023-06-14T00:30:40;10.32;;;7.15;;
18931;SDS011;9598;50.954;3.112;2023-06-14T00:35:44;8.38;;;7.63;;
18931;SDS011;9598;50.954;3.112;2023-06-14T00:40:47;7.95;;;7.20;;
18931;SDS011;9598;50.954;3.112;2023-06-14T00:45:50;8.27;;;7.57;;
18931;SDS011;9598;50.954;3.112;2023-06-14T00:50:53;9.13;;;8.38;;
18931;SDS011;9598;50.954;3.112;2023-06-14T00:55:56;9.38;;;8.38;;
18931;SDS011;9598;50.954;3.112;2023-06-14T01:01:00;9.57;;;8.60;;
18931;SDS011;9598;50.954;3.112;2023-06-14T01:06:05;9.52;;;8.20;;
18931;SDS011;9598;50.954;3.112;2023-06-14T01:11:16;9.98;;;8.60;;
18931;SDS011;9598;50.954;3.112;2023-06-14T01:16:26;11.02;;;9.85;;
18931;SDS011;9598;50.954;3.112;2023-06-14T01:21:29;10.65;;;9.05;;
18931;SDS011;9598;50.954;3.112;2023-06-14T01:26:35;11.02;;;9.60;;
18931;SDS011;9598;50.954;3.112;2023-06-14T01:31:38;10.80;;;9.50;;
18931;SDS011;9598;50.954;3.112;2023-06-14T01:36:42;10.00;;;9.18;;
18931;SDS011;9598;50.954;3.112;2023-06-14T01:41:47;11.50;;;10.35;;
18931;SDS011;9598;50.954;3.112;2023-06-14T01:46:52;12.40;;;10.77;;
18931;SDS011;9598;50.954;3.112;2023-06-14T01:51:56;12.27;;;11.10;;
18931;SDS011;9598;50.954;3.112;2023-06-14T01:57:00;11.77;;;10.43;;
18931;SDS011;9598;50.954;3.112;2023-06-14T02:02:02;11.35;;;10.30;;
18931;SDS011;9598;50.954;3.112;2023-06-14T02:07:06;11.15;;;10.07;;
18931;SDS011;9598;50.954;3.112;2023-06-14T02:12:10;11.65;;;10.45;;
18931;SDS011;9598;50.954;3.112;2023-06-14T02:17:12;11.95;;;10.75;;
18931;SDS011;9598;50.954;3.112;2023-06-14T02:22:15;11.85;;;10.68;;
18931;SDS011;9598;50.954;3.112;2023-06-14T02:27:18;10.98;;;9.50;;
18931;SDS011;9598;50.954;3.112;2023-06-14T02:32:20;11.90;;;10.05;;
18931;SDS011;9598;50.954;3.112;2023-06-14T02:37:23;10.95;;;10.02;;
18931;SDS011;9598;50.954;3.112;2023-06-14T02:42:28;10.73;;;9.63;;
18931;SDS011;9598;50.954;3.112;2023-06-14T02:47:30;10.85;;;9.82;;
18931;SDS011;9598;50.954;3.112;2023-06-14T02:52:33;10.30;;;9.50;;
18931;SDS011;9598;50.954;3.112;2023-06-14T02:57:36;10.88;;;9.98;;
18931;SDS011;9598;50.954;3.112;2023-06-14T03:02:39;11.40;;;10.30;;
18931;SDS011;9598;50.954;3.112;2023-06-14T03:07:43;9.73;;;9.02;;
18931;SDS011;9598;50.954;3.112;2023-06-14T03:12:47;12.77;;;9.68;;
18931;SDS011;9598;50.954;3.112;2023-06-14T03:17:51;11.38;;;10.38;;
18931;SDS011;9598;50.954;3.112;2023-06-14T03:22:55;11.43;;;10.38;;
18931;SDS011;9598;50.954;3.112;2023-06-14T03:27:58;11.63;;;10.60;;
18931;SDS011;9598;50.954;3.112;2023-06-14T03:33:00;18.25;;;10.70;;
18931;SDS011;9598;50.954;3.112;2023-06-14T03:38:04;19.13;;;10.52;;
18931;SDS011;9598;50.954;3.112;2023-06-14T03:43:07;11.27;;;10.18;;
18931;SDS011;9598;50.954;3.112;2023-06-14T03:48:10;10.52;;;9.52;;
18931;SDS011;9598;50.954;3.112;2023-06-14T03:53:12;12.18;;;10.25;;
18931;SDS011;9598;50.954;3.112;2023-06-14T03:58:19;12.25;;;9.80;;
18931;SDS011;9598;50.954;3.112;2023-06-14T04:03:21;11.63;;;10.43;;
18931;SDS011;9598;50.954;3.112;2023-06-14T04:08:30;12.93;;;10.43;;
18931;SDS011;9598;50.954;3.112;2023-06-14T04:13:34;11.80;;;10.70;;
18931;SDS011;9598;50.954;3.112;2023-06-14T04:18:39;10.60;;;9.60;;
18931;SDS011;9598;50.954;3.112;2023-06-14T04:23:41;12.65;;;10.95;;
18931;SDS011;9598;50.954;3.112;2023-06-14T04:28:46;13.68;;;10.52;;
18931;SDS011;9598;50.954;3.112;2023-06-14T04:33:49;11.70;;;10.40;;
18931;SDS011;9598;50.954;3.112;2023-06-14T04:38:55;10.85;;;9.75;;
18931;SDS011;9598;50.954;3.112;2023-06-14T04:44:02;11.48;;;10.27;;
18931;SDS011;9598;50.954;3.112;2023-06-14T04:49:10;12.95;;;11.60;;
18931;SDS011;9598;50.954;3.112;2023-06-14T04:54:14;13.20;;;10.50;;
18931;SDS011;9598;50.954;3.112;2023-06-14T04:59:21;11.38;;;10.13;;
18931;SDS011;9598;50.954;3.112;2023-06-14T05:04:25;12.05;;;9.82;;
18931;SDS011;9598;50.954;3.112;2023-06-14T05:09:28;11.07;;;10.00;;
18931;SDS011;9598;50.954;3.112;2023-06-14T05:14:31;11.00;;;9.90;;
18931;SDS011;9598;50.954;3.112;2023-06-14T05:19:34;11.43;;;10.30;;
18931;SDS011;9598;50.954;3.112;2023-06-14T05:24:36;11.23;;;10.13;;
18931;SDS011;9598;50.954;3.112;2023-06-14T05:29:40;11.40;;;10.23;;
18931;SDS011;9598;50.954;3.112;2023-06-14T05:34:42;11.55;;;10.40;;
18931;SDS011;9598;50.954;3.112;2023-06-14T05:39:44;12.23;;;9.88;;
18931;SDS011;9598;50.954;3.112;2023-06-14T05:44:48;11.07;;;9.93;;
18931;SDS011;9598;50.954;3.112;2023-06-14T05:49:50;11.30;;;10.00;;
18931;SDS011;9598;50.954;3.112;2023-06-14T05:54:53;13.27;;;9.93;;
18931;SDS011;9598;50.954;3.112;2023-06-14T05:59:56;11.38;;;10.27;;
18931;SDS011;9598;50.954;3.112;2023-06-14T06:04:58;11.85;;;9.68;;
18931;SDS011;9598;50.954;3.112;2023-06-14T06:10:01;10.82;;;9.57;;
18931;SDS011;9598;50.954;3.112;2023-06-14T06:15:05;11.20;;;9.65;;
18931;SDS011;9598;50.954;3.112;2023-06-14T06:20:08;11.25;;;9.43;;
18931;SDS011;9598;50.954;3.112;2023-06-14T06:25:11;10.00;;;8.85;;
18931;SDS011;9598;50.954;3.112;2023-06-14T06:30:16;9.07;;;8.25;;
18931;SDS011;9598;50.954;3.112;2023-06-14T06:35:18;9.82;;;8.93;;
18931;SDS011;9598;50.954;3.112;2023-06-14T06:40:20;10.30;;;9.18;;
18931;SDS011;9598;50.954;3.112;2023-06-14T06:45:24;11.32;;;9.07;;
18931;SDS011;9598;50.954;3.112;2023-06-14T06:50:26;11.10;;;9.10;;
18931;SDS011;9598;50.954;3.112;2023-06-14T06:55:28;9.93;;;8.57;;
18931;SDS011;9598;50.954;3.112;2023-06-14T07:00:32;10.25;;;9.13;;
18931;SDS011;9598;50.954;3.112;2023-06-14T07:05:34;9.65;;;8.65;;
18931;SDS011;9598;50.954;3.112;2023-06-14T07:10:37;10.48;;;8.73;;
18931;SDS011;9598;50.954;3.112;2023-06-14T07:15:40;9.65;;;8.75;;
18931;SDS011;9598;50.954;3.112;2023-06-14T07:20:42;10.35;;;8.52;;
18931;SDS011;9598;50.954;3.112;2023-06-14T07:25:45;10.43;;;9.35;;
18931;SDS011;9598;50.954;3.112;2023-06-14T07:30:48;9.38;;;8.35;;
18931;SDS011;9598;50.954;3.112;2023-06-14T07:35:50;9.82;;;8.93;;
18931;SDS011;9598;50.954;3.112;2023-06-14T07:40:53;9.90;;;8.93;;
18931;SDS011;9598;50.954;3.112;2023-06-14T07:45:57;10.98;;;9.68;;
18931;SDS011;9598;50.954;3.112;2023-06-14T07:50:59;9.65;;;8.75;;
18931;SDS011;9598;50.954;3.112;2023-06-14T07:56:01;9.88;;;8.85;;
18931;SDS011;9598;50.954;3.112;2023-06-14T08:01:05;8.82;;;8.02;;
18931;SDS011;9598;50.954;3.112;2023-06-14T08:06:08;9.05;;;8.25;;
18931;SDS011;9598;50.954;3.112;2023-06-14T08:11:10;8.35;;;7.63;;
18931;SDS011;9598;50.954;3.112;2023-06-14T08:16:13;10.48;;;8.02;;
18931;SDS011;9598;50.954;3.112;2023-06-14T08:21:15;9.57;;;8.57;;
18931;SDS011;9598;50.954;3.112;2023-06-14T08:26:18;11.07;;;9.63;;
18931;SDS011;9598;50.954;3.112;2023-06-14T08:31:23;9.68;;;8.80;;
18931;SDS011;9598;50.954;3.112;2023-06-14T08:36:25;8.73;;;7.93;;
18931;SDS011;9598;50.954;3.112;2023-06-14T08:41:28;10.55;;;9.45;;
18931;SDS011;9598;50.954;3.112;2023-06-14T08:46:32;10.50;;;9.48;;
18931;SDS011;9598;50.954;3.112;2023-06-14T08:51:35;10.05;;;8.18;;
18931;SDS011;9598;50.954;3.112;2023-06-14T08:56:38;8.30;;;7.00;;
18931;SDS011;9598;50.954;3.112;2023-06-14T09:01:43;8.07;;;7.38;;
18931;SDS011;9598;50.954;3.112;2023-06-14T09:06:48;6.57;;;5.97;;
18931;SDS011;9598;50.954;3.112;2023-06-14T09:11:53;7.80;;;6.38;;
18931;SDS011;9598;50.954;3.112;2023-06-14T09:16:57;7.15;;;6.30;;
18931;SDS011;9598;50.954;3.112;2023-06-14T09:21:59;6.43;;;5.93;;
18931;SDS011;9598;50.954;3.112;2023-06-14T09:27:01;7.30;;;6.60;;
18931;SDS011;9598;50.954;3.112;2023-06-14T09:32:05;8.43;;;6.10;;
18931;SDS011;9598;50.954;3.112;2023-06-14T09:37:09;6.72;;;6.05;;
18931;SDS011;9598;50.954;3.112;2023-06-14T09:42:16;6.85;;;5.65;;
18931;SDS011;9598;50.954;3.112;2023-06-14T09:47:21;9.65;;;6.57;;
18931;SDS011;9598;50.954;3.112;2023-06-14T09:52:23;6.75;;;6.10;;
18931;SDS011;9598;50.954;3.112;2023-06-14T09:57:27;7.18;;;6.57;;
18931;SDS011;9598;50.954;3.112;2023-06-14T10:02:35;7.80;;;6.13;;
18931;SDS011;9598;50.954;3.112;2023-06-14T10:07:40;6.85;;;6.20;;
18931;SDS011;9598;50.954;3.112;2023-06-14T10:12:45;9.38;;;5.88;;
18931;SDS011;9598;50.954;3.112;2023-06-14T10:17:50;6.82;;;5.97;;
18931;SDS011;9598;50.954;3.112;2023-06-14T10:22:59;6.78;;;6.13;;
18931;SDS011;9598;50.954;3.112;2023-06-14T10:28:14;6.78;;;6.28;;
18931;SDS011;9598;50.954;3.112;2023-06-14T10:33:20;6.72;;;6.13;;
18931;SDS011;9598;50.954;3.112;2023-06-14T10:38:30;6.07;;;5.50;;
18931;SDS011;9598;50.954;3.112;2023-06-14T10:43:33;6.93;;;6.28;;
18931;SDS011;9598;50.954;3.112;2023-06-14T10:48:41;6.97;;;6.22;;
18931;SDS011;9598;50.954;3.112;2023-06-14T10:53:44;6.05;;;5.55;;
18931;SDS011;9598;50.954;3.112;2023-06-14T10:58:46;6.53;;;6.05;;
18931;SDS011;9598;50.954;3.112;2023-06-14T11:03:51;6.72;;;5.95;;
18931;SDS011;9598;50.954;3.112;2023-06-14T11:09:08;6.22;;;5.68;;
18931;SDS011;9598;50.954;3.112;2023-06-14T11:14:30;6.60;;;5.68;;
18931;SDS011;9598;50.954;3.112;2023-06-14T11:19:34;7.70;;;6.97;;
18931;SDS011;9598;50.954;3.112;2023-06-14T11:24:36;6.55;;;6.03;;
18931;SDS011;9598;50.954;3.112;2023-06-14T11:29:38;6.88;;;5.97;;
18931;SDS011;9598;50.954;3.112;2023-06-14T11:34:50;10.32;;;7.13;;
18931;SDS011;9598;50.954;3.112;2023-06-14T11:39:55;6.53;;;5.75;;
18931;SDS011;9598;50.954;3.112;2023-06-14T11:44:58;6.40;;;5.90;;
18931;SDS011;9598;50.954;3.112;2023-06-14T11:50:01;7.00;;;6.40;;
18931;SDS011;9598;50.954;3.112;2023-06-14T11:55:05;7.13;;;5.75;;
18931;SDS011;9598;50.954;3.112;2023-06-14T12:00:08;7.22;;;6.30;;
18931;SDS011;9598;50.954;3.112;2023-06-14T12:05:13;7.15;;;6.30;;
18931;SDS011;9598;50.954;3.112;2023-06-14T12:10:16;6.05;;;5.45;;
18931;SDS011;9598;50.954;3.112;2023-06-14T12:15:18;6.97;;;5.85;;
18931;SDS011;9598;50.954;3.112;2023-06-14T12:20:22;6.90;;;6.13;;
18931;SDS011;9598;50.954;3.112;2023-06-14T12:25:28;6.30;;;5.80;;
18931;SDS011;9598;50.954;3.112;2023-06-14T12:30:32;6.75;;;5.70;;
18931;SDS011;9598;50.954;3.112;2023-06-14T12:35:36;8.93;;;6.50;;
18931;SDS011;9598;50.954;3.112;2023-06-14T12:40:38;6.07;;;5.55;;
18931;SDS011;9598;50.954;3.112;2023-06-14T12:45:41;5.78;;;5.28;;
18931;SDS011;9598;50.954;3.112;2023-06-14T12:50:45;7.72;;;5.80;;
18931;SDS011;9598;50.954;3.112;2023-06-14T12:55:48;6.70;;;5.97;;
18931;SDS011;9598;50.954;3.112;2023-06-14T13:00:50;6.40;;;5.82;;
18931;SDS011;9598;50.954;3.112;2023-06-14T13:05:54;6.03;;;5.38;;
18931;SDS011;9598;50.954;3.112;2023-06-14T13:10:56;5.70;;;5.20;;
18931;SDS011;9598;50.954;3.112;2023-06-14T13:15:59;6.18;;;5.45;;
18931;SDS011;9598;50.954;3.112;2023-06-14T13:21:02;6.10;;;5.28;;
18931;SDS011;9598;50.954;3.112;2023-06-14T13:26:04;6.72;;;4.97;;
18931;SDS011;9598;50.954;3.112;2023-06-14T13:31:06;5.75;;;5.22;;
18931;SDS011;9598;50.954;3.112;2023-06-14T13:36:10;5.63;;;5.13;;
18931;SDS011;9598;50.954;3.112;2023-06-14T13:41:12;6.43;;;5.35;;
18931;SDS011;9598;50.954;3.112;2023-06-14T13:46:14;5.53;;;5.03;;
18931;SDS011;9598;50.954;3.112;2023-06-14T13:51:17;6.53;;;5.63;;
18931;SDS011;9598;50.954;3.112;2023-06-14T13:56:20;6.35;;;5.15;;
18931;SDS011;9598;50.954;3.112;2023-06-14T14:01:24;6.25;;;5.70;;
18931;SDS011;9598;50.954;3.112;2023-06-14T14:06:28;6.15;;;5.65;;
18931;SDS011;9598;50.954;3.112;2023-06-14T14:11:30;6.13;;;5.25;;
18931;SDS011;9598;50.954;3.112;2023-06-14T14:16:33;6.60;;;5.45;;
18931;SDS011;9598;50.954;3.112;2023-06-14T14:21:38;6.07;;;5.47;;
18931;SDS011;9598;50.954;3.112;2023-06-14T14:26:40;6.40;;;5.45;;
18931;SDS011;9598;50.954;3.112;2023-06-14T14:31:42;5.68;;;5.20;;
18931;SDS011;9598;50.954;3.112;2023-06-14T14:36:45;6.80;;;5.82;;
18931;SDS011;9598;50.954;3.112;2023-06-14T14:41:47;6.30;;;5.25;;
18931;SDS011;9598;50.954;3.112;2023-06-14T14:46:50;5.97;;;5.47;;
18931;SDS011;9598;50.954;3.112;2023-06-14T14:51:54;5.90;;;5.40;;
18931;SDS011;9598;50.954;3.112;2023-06-14T14:56:57;6.03;;;5.47;;
18931;SDS011;9598;50.954;3.112;2023-06-14T15:01:59;6.20;;;5.55;;
18931;SDS011;9598;50.954;3.112;2023-06-14T15:07:03;5.80;;;5.30;;
18931;SDS011;9598;50.954;3.112;2023-06-14T15:12:07;6.60;;;5.95;;
18931;SDS011;9598;50.954;3.112;2023-06-14T15:17:10;8.65;;;6.05;;
18931;SDS011;9598;50.954;3.112;2023-06-14T15:22:14;6.90;;;5.28;;
18931;SDS011;9598;50.954;3.112;2023-06-14T15:27:16;6.28;;;5.15;;
18931;SDS011;9598;50.954;3.112;2023-06-14T15:32:18;7.43;;;5.10;;
18931;SDS011;9598;50.954;3.112;2023-06-14T15:37:22;6.40;;;5.75;;
18931;SDS011;9598;50.954;3.112;2023-06-14T15:42:24;8.80;;;6.18;;
18931;SDS011;9598;50.954;3.112;2023-06-14T15:47:26;8.15;;;5.88;;
18931;SDS011;9598;50.954;3.112;2023-06-14T15:52:30;5.68;;;4.90;;
18931;SDS011;9598;50.954;3.112;2023-06-14T15:57:32;6.53;;;5.18;;
18931;SDS011;9598;50.954;3.112;2023-06-14T16:02:34;7.38;;;4.97;;
18931;SDS011;9598;50.954;3.112;2023-06-14T16:07:37;6.22;;;4.95;;
18931;SDS011;9598;50.954;3.112;2023-06-14T16:12:40;7.35;;;4.82;;
18931;SDS011;9598;50.954;3.112;2023-06-14T16:17:42;5.45;;;4.88;;
18931;SDS011;9598;50.954;3.112;2023-06-14T16:22:45;5.10;;;4.60;;
18931;SDS011;9598;50.954;3.112;2023-06-14T16:27:48;6.00;;;4.38;;
18931;SDS011;9598;50.954;3.112;2023-06-14T16:32:50;5.97;;;5.10;;
18931;SDS011;9598;50.954;3.112;2023-06-14T16:37:55;4.97;;;4.43;;
18931;SDS011;9598;50.954;3.112;2023-06-14T16:42:57;6.03;;;4.25;;
18931;SDS011;9598;50.954;3.112;2023-06-14T16:47:59;5.60;;;3.58;;
18931;SDS011;9598;50.954;3.112;2023-06-14T16:53:02;4.75;;;4.10;;
18931;SDS011;9598;50.954;3.112;2023-06-14T16:58:04;4.40;;;3.63;;
18931;SDS011;9598;50.954;3.112;2023-06-14T17:03:06;4.28;;;3.92;;
18931;SDS011;9598;50.954;3.112;2023-06-14T17:08:10;3.67;;;3.20;;
18931;SDS011;9598;50.954;3.112;2023-06-14T17:13:12;5.47;;;3.13;;
18931;SDS011;9598;50.954;3.112;2023-06-14T17:18:14;3.65;;;2.90;;
18931;SDS011;9598;50.954;3.112;2023-06-14T17:23:17;3.28;;;2.95;;
18931;SDS011;9598;50.954;3.112;2023-06-14T17:28:19;3.03;;;2.67;;
18931;SDS011;9598;50.954;3.112;2023-06-14T17:33:22;3.70;;;3.05;;
18931;SDS011;9598;50.954;3.112;2023-06-14T17:38:25;4.28;;;2.75;;
18931;SDS011;9598;50.954;3.112;2023-06-14T17:43:29;3.58;;;2.55;;
18931;SDS011;9598;50.954;3.112;2023-06-14T17:48:31;4.00;;;2.60;;
18931;SDS011;9598;50.954;3.112;2023-06-14T17:53:35;4.80;;;2.60;;
18931;SDS011;9598;50.954;3.112;2023-06-14T17:58:37;2.92;;;2.47;;
18931;SDS011;9598;50.954;3.112;2023-06-14T18:03:39;3.28;;;2.45;;
18931;SDS011;9598;50.954;3.112;2023-06-14T18:08:43;2.80;;;2.50;;
18931;SDS011;9598;50.954;3.112;2023-06-14T18:13:47;5.88;;;2.50;;
18931;SDS011;9598;50.954;3.112;2023-06-14T18:18:49;4.32;;;3.35;;
18931;SDS011;9598;50.954;3.112;2023-06-14T18:23:54;3.00;;;2.25;;
18931;SDS011;9598;50.954;3.112;2023-06-14T18:28:56;4.07;;;2.63;;
18931;SDS011;9598;50.954;3.112;2023-06-14T18:34:00;2.50;;;2.30;;
18931;SDS011;9598;50.954;3.112;2023-06-14T18:39:04;6.85;;;2.50;;
18931;SDS011;9598;50.954;3.112;2023-06-14T18:44:06;5.43;;;2.42;;
18931;SDS011;9598;50.954;3.112;2023-06-14T18:49:08;2.60;;;2.40;;
18931;SDS011;9598;50.954;3.112;2023-06-14T18:54:11;2.65;;;2.45;;
18931;SDS011;9598;50.954;3.112;2023-06-14T18:59:13;2.72;;;2.10;;
18931;SDS011;9598;50.954;3.112;2023-06-14T19:04:15;3.13;;;2.50;;
18931;SDS011;9598;50.954;3.112;2023-06-14T19:09:19;3.17;;;2.33;;
18931;SDS011;9598;50.954;3.112;2023-06-14T19:14:23;2.22;;;1.80;;
18931;SDS011;9598;50.954;3.112;2023-06-14T19:19:25;3.58;;;2.65;;
18931;SDS011;9598;50.954;3.112;2023-06-14T19:24:28;4.18;;;2.35;;
18931;SDS011;9598;50.954;3.112;2023-06-14T19:29:31;3.10;;;2.30;;
18931;SDS011;9598;50.954;3.112;2023-06-14T19:34:34;2.92;;;2.30;;
18931;SDS011;9598;50.954;3.112;2023-06-14T19:39:40;2.40;;;2.20;;
18931;SDS011;9598;50.954;3.112;2023-06-14T19:44:42;2.58;;;2.35;;
18931;SDS011;9598;50.954;3.112;2023-06-14T19:49:45;2.60;;;2.40;;
18931;SDS011;9598;50.954;3.112;2023-06-14T19:54:49;6.78;;;2.92;;
18931;SDS011;9598;50.954;3.112;2023-06-14T19:59:51;4.30;;;2.58;;
18931;SDS011;9598;50.954;3.112;2023-06-14T20:04:53;2.53;;;2.33;;
18931;SDS011;9598;50.954;3.112;2023-06-14T20:09:57;2.70;;;2.28;;
18931;SDS011;9598;50.954;3.112;2023-06-14T20:14:59;2.47;;;2.20;;
18931;SDS011;9598;50.954;3.112;2023-06-14T20:20:01;4.72;;;2.53;;
18931;SDS011;9598;50.954;3.112;2023-06-14T20:25:05;2.65;;;2.42;;
18931;SDS011;9598;50.954;3.112;2023-06-14T20:30:08;3.30;;;2.78;;
18931;SDS011;9598;50.954;3.112;2023-06-14T20:35:11;4.18;;;2.30;;
18931;SDS011;9598;50.954;3.112;2023-06-14T20:40:20;2.92;;;2.60;;
18931;SDS011;9598;50.954;3.112;2023-06-14T20:45:22;6.15;;;3.10;;
18931;SDS011;9598;50.954;3.112;2023-06-14T20:50:26;3.33;;;2.35;;
18931;SDS011;9598;50.954;3.112;2023-06-14T20:55:29;2.90;;;2.70;;
18931;SDS011;9598;50.954;3.112;2023-06-14T21:00:32;3.20;;;2.45;;
18931;SDS011;9598;50.954;3.112;2023-06-14T21:05:35;3.85;;;2.90;;
18931;SDS011;9598;50.954;3.112;2023-06-14T21:10:40;2.78;;;2.55;;
18931;SDS011;9598;50.954;3.112;2023-06-14T21:15:42;4.47;;;2.90;;
18931;SDS011;9598;50.954;3.112;2023-06-14T21:20:44;4.05;;;3.05;;
18931;SDS011;9598;50.954;3.112;2023-06-14T21:25:48;4.88;;;2.70;;
18931;SDS011;9598;50.954;3.112;2023-06-14T21:30:50;2.78;;;2.50;;
18931;SDS011;9598;50.954;3.112;2023-06-14T21:35:53;2.72;;;2.53;;
18931;SDS011;9598;50.954;3.112;2023-06-14T21:40:56;3.00;;;2.63;;
18931;SDS011;9598;50.954;3.112;2023-06-14T21:45:58;3.20;;;2.60;;
18931;SDS011;9598;50.954;3.112;2023-06-14T21:51:00;4.13;;;2.97;;
18931;SDS011;9598;50.954;3.112;2023-06-14T21:56:04;2.72;;;2.53;;
18931;SDS011;9598;50.954;3.112;2023-06-14T22:01:06;3.90;;;2.80;;
18931;SDS011;9598;50.954;3.112;2023-06-14T22:06:08;2.97;;;2.67;;
18931;SDS011;9598;50.954;3.112;2023-06-14T22:11:11;4.20;;;2.80;;
18931;SDS011;9598;50.954;3.112;2023-06-14T22:16:16;3.17;;;2.38;;
18931;SDS011;9598;50.954;3.112;2023-06-14T22:21:21;5.85;;;3.03;;
18931;SDS011;9598;50.954;3.112;2023-06-14T22:26:25;4.82;;;3.05;;
18931;SDS011;9598;50.954;3.112;2023-06-14T22:31:27;3.53;;;3.10;;
18931;SDS011;9598;50.954;3.112;2023-06-14T22:36:30;3.20;;;2.92;;
18931;SDS011;9598;50.954;3.112;2023-06-14T22:41:34;3.00;;;2.78;;
18931;SDS011;9598;50.954;3.112;2023-06-14T22:46:38;4.90;;;3.38;;
18931;SDS011;9598;50.954;3.112;2023-06-14T22:51:41;3.03;;;2.83;;
18931;SDS011;9598;50.954;3.112;2023-06-14T22:56:45;3.58;;;2.53;;
18931;SDS011;9598;50.954;3.112;2023-06-14T23:01:47;4.60;;;3.25;;
18931;SDS011;9598;50.954;3.112;2023-06-14T23:06:50;3.05;;;2.70;;
18931;SDS011;9598;50.954;3.112;2023-06-14T23:11:54;4.35;;;3.30;;
18931;SDS011;9598;50.954;3.112;2023-06-14T23:16:57;4.57;;;3.00;;
18931;SDS011;9598;50.954;3.112;2023-06-14T23:21:59;4.85;;;4.00;;
18931;SDS011;9598;50.954;3.112;2023-06-14T23:27:04;4.65;;;3.97;;
18931;SDS011;9598;50.954;3.112;2023-06-14T23:32:08;4.95;;;3.60;;
18931;SDS011;9598;50.954;3.112;2023-06-14T23:37:10;4.80;;;3.88;;
18931;SDS011;9598;50.954;3.112;2023-06-14T23:42:14;4.75;;;3.58;;
18931;SDS011;9598;50.954;3.112;2023-06-14T23:47:16;4.78;;;4.07;;
18931;SDS011;9598;50.954;3.112;2023-06-14T23:52:18;5.28;;;4.40;;
18931;SDS011;9598;50.954;3.112;2023-06-14T23:57:22;5.53;;;4.80;;
